createdAt,value
2023-04-16T00:01:20.966Z,100527.19
2023-04-16T00:03:48.708Z,100523.66
2023-04-16T00:06:16.511Z,100530.72
2023-04-16T00:08:43.973Z,100529.03
2023-04-16T00:11:11.665Z,100545.13
2023-04-16T00:13:38.916Z,100540.75
2023-04-16T00:16:06.651Z,100540.75
2023-04-16T00:18:33.893Z,100535.41
2023-04-16T00:21:01.156Z,100535.41
2023-04-16T00:23:28.446Z,100536.25
2023-04-16T00:25:59.792Z,100540.75
2023-04-16T00:28:27.717Z,100541.59
2023-04-16T00:30:55.817Z,100548.06
2023-04-16T00:33:23.813Z,100552.44
2023-04-16T00:35:51.265Z,100547.94
2023-04-16T00:38:18.609Z,100556.97
2023-04-16T00:40:45.930Z,100553.28
2023-04-16T00:43:24.765Z,100548.06
2023-04-16T00:45:56.880Z,100544.41
2023-04-16T00:48:24.896Z,100548.94
2023-04-16T00:50:52.138Z,100546.25
2023-04-16T00:53:19.540Z,100549.78
2023-04-16T00:55:46.873Z,100549.78
2023-04-16T00:58:14.223Z,100545.41
2023-04-16T01:00:41.719Z,100544.41
2023-04-16T01:03:09.751Z,100536.34
2023-04-16T01:05:37.383Z,100541.72
2023-04-16T01:08:04.978Z,100539.03
2023-04-16T01:10:32.350Z,100540.88
2023-04-16T01:12:59.592Z,100543.44
2023-04-16T01:15:26.830Z,100546.25
2023-04-16T01:17:54.119Z,100540.03
2023-04-16T01:20:21.438Z,100546.25
2023-04-16T01:22:49.137Z,100546.38
2023-04-16T01:25:16.648Z,100544.56
2023-04-16T01:27:44.014Z,100541.88
2023-04-16T01:30:11.533Z,100540.03
2023-04-16T01:32:49.618Z,100543.72
2023-04-16T01:35:18.262Z,100546.38
2023-04-16T01:37:45.784Z,100545.41
2023-04-16T01:40:13.240Z,100545.53
2023-04-16T01:42:40.572Z,100546.50
2023-04-16T01:45:08.423Z,100543.72
2023-04-16T01:47:36.003Z,100547.34
2023-04-16T01:50:04.244Z,100547.34
2023-04-16T01:52:31.613Z,100550.03
2023-04-16T01:54:58.833Z,100554.56
2023-04-16T01:57:26.098Z,100555.41
2023-04-16T01:59:53.969Z,100554.69
2023-04-16T02:02:28.001Z,100562.75
2023-04-16T02:04:59.529Z,100561.75
2023-04-16T02:07:27.418Z,100567.97
2023-04-16T02:09:54.743Z,100569.81
2023-04-16T02:12:22.836Z,100560.06
2023-04-16T02:14:50.168Z,100568.13
2023-04-16T02:17:19.967Z,100567.13
2023-04-16T02:19:49.900Z,100563.59
2023-04-16T02:22:17.965Z,100569.81
2023-04-16T02:24:45.505Z,100575.16
2023-04-16T02:27:12.866Z,100577.84
2023-04-16T02:29:40.867Z,100577.84
2023-04-16T02:32:13.946Z,100578.84
2023-04-16T02:34:45.041Z,100581.53
2023-04-16T02:37:15.391Z,100580.69
2023-04-16T02:39:43.922Z,100579.84
2023-04-16T02:42:11.185Z,100581.53
2023-04-16T02:44:38.648Z,100581.53
2023-04-16T02:47:05.968Z,100579.84
2023-04-16T02:49:33.517Z,100575.31
2023-04-16T02:52:00.762Z,100579.00
2023-04-16T02:54:28.034Z,100585.19
2023-04-16T02:56:55.643Z,100577.16
2023-04-16T02:59:22.981Z,100578.09
2023-04-16T03:01:50.511Z,100579.84
2023-04-16T03:04:17.867Z,100579.00
2023-04-16T03:06:45.276Z,100590.56
2023-04-16T03:09:12.788Z,100586.16
2023-04-16T03:11:40.042Z,100583.47
2023-04-16T03:14:07.293Z,100587.03
2023-04-16T03:16:34.526Z,100591.53
2023-04-16T03:19:01.885Z,100581.78
2023-04-16T03:21:29.199Z,100595.19
2023-04-16T03:23:57.838Z,100589.84
2023-04-16T03:26:25.190Z,100587.16
2023-04-16T03:28:52.586Z,100589.84
2023-04-16T03:31:20.737Z,100588.00
2023-04-16T03:33:48.131Z,100593.34
2023-04-16T03:36:15.724Z,100590.69
2023-04-16T03:38:43.144Z,100594.19
2023-04-16T03:41:11.458Z,100588.00
2023-04-16T03:43:38.728Z,100594.34
2023-04-16T03:46:06.274Z,100605.94
2023-04-16T03:48:33.680Z,100602.41
2023-04-16T03:51:01.166Z,100604.94
2023-04-16T03:53:29.154Z,100613.13
2023-04-16T03:55:56.526Z,100613.13
2023-04-16T03:58:24.504Z,100614.97
2023-04-16T04:00:55.254Z,100617.66
2023-04-16T04:03:23.021Z,100614.13
2023-04-16T04:05:50.871Z,100613.97
2023-04-16T04:08:30.413Z,100618.50
2023-04-16T04:10:57.689Z,100619.34
2023-04-16T04:13:25.837Z,100629.22
2023-04-16T04:15:54.036Z,100621.16
2023-04-16T04:18:22.503Z,100628.38
2023-04-16T04:20:49.927Z,100631.91
2023-04-16T04:23:20.054Z,100639.94
2023-04-16T04:25:48.344Z,100639.94
2023-04-16T04:28:15.960Z,100635.56
2023-04-16T04:30:43.274Z,100636.41
2023-04-16T04:33:11.045Z,100636.56
2023-04-16T04:35:39.098Z,100639.25
2023-04-16T04:38:06.699Z,100642.78
2023-04-16T04:40:34.817Z,100640.09
2023-04-16T04:43:04.494Z,100642.78
2023-04-16T04:45:32.343Z,100647.28
2023-04-16T04:48:00.034Z,100645.47
2023-04-16T04:50:27.372Z,100647.28
2023-04-16T04:52:54.759Z,100650.94
2023-04-16T04:55:22.741Z,100648.25
2023-04-16T04:57:51.098Z,100655.34
2023-04-16T05:00:18.679Z,100664.34
2023-04-16T05:02:53.475Z,100664.34
2023-04-16T05:05:21.062Z,100667.03
2023-04-16T05:07:48.409Z,100671.53
2023-04-16T05:10:15.812Z,100673.25
2023-04-16T05:12:43.154Z,100674.22
2023-04-16T05:15:10.754Z,100680.44
2023-04-16T05:17:38.129Z,100687.63
2023-04-16T05:20:06.190Z,100692.16
2023-04-16T05:22:33.418Z,100687.63
2023-04-16T05:25:00.667Z,100684.97
2023-04-16T05:27:28.016Z,100683.25
2023-04-16T05:29:55.269Z,100682.28
2023-04-16T05:32:25.363Z,100685.94
2023-04-16T05:34:52.652Z,100688.63
2023-04-16T05:37:19.907Z,100688.63
2023-04-16T05:39:47.824Z,100686.94
2023-04-16T05:42:15.460Z,100683.25
2023-04-16T05:44:42.707Z,100687.78
2023-04-16T05:47:10.070Z,100697.53
2023-04-16T05:49:37.382Z,100703.72
2023-04-16T05:52:05.769Z,100702.03
2023-04-16T05:54:33.050Z,100710.09
2023-04-16T05:57:01.605Z,100718.97
2023-04-16T05:59:29.546Z,100717.28
2023-04-16T06:01:57.677Z,100716.44
2023-04-16T06:04:25.074Z,100720.81
2023-04-16T06:06:52.346Z,100723.50
2023-04-16T06:09:19.636Z,100727.16
2023-04-16T06:11:46.951Z,100727.16
2023-04-16T06:14:14.385Z,100731.53
2023-04-16T06:16:41.676Z,100734.38
2023-04-16T06:19:09.220Z,100735.22
2023-04-16T06:21:38.033Z,100738.75
2023-04-16T06:24:05.882Z,100742.28
2023-04-16T06:26:33.177Z,100738.75
2023-04-16T06:29:00.793Z,100747.63
2023-04-16T06:31:28.100Z,100753.00
2023-04-16T06:33:55.337Z,100757.50
2023-04-16T06:36:22.664Z,100765.56
2023-04-16T06:38:50.021Z,100767.25
2023-04-16T06:41:17.368Z,100770.78
2023-04-16T06:43:44.813Z,100774.44
2023-04-16T06:46:12.113Z,100769.94
2023-04-16T06:48:39.497Z,100767.25
2023-04-16T06:51:06.859Z,100775.31
2023-04-16T06:53:34.199Z,100767.25
2023-04-16T06:56:01.538Z,100770.78
2023-04-16T06:58:29.128Z,100770.78
2023-04-16T07:00:56.521Z,100778.84
2023-04-16T07:03:23.988Z,100773.47
2023-04-16T07:05:51.458Z,100777.84
2023-04-16T07:08:18.763Z,100777.84
2023-04-16T07:10:46.132Z,100783.22
2023-04-16T07:13:13.519Z,100779.69
2023-04-16T07:15:40.783Z,100782.25
2023-04-16T07:18:08.092Z,100781.41
2023-04-16T07:20:36.241Z,100779.56
2023-04-16T07:23:03.629Z,100776.88
2023-04-16T07:25:30.895Z,100779.56
2023-04-16T07:27:58.170Z,100776.88
2023-04-16T07:30:25.770Z,100772.38
2023-04-16T07:32:53.308Z,100773.22
2023-04-16T07:35:21.059Z,100775.91
2023-04-16T07:37:48.415Z,100779.44
2023-04-16T07:40:15.873Z,100774.91
2023-04-16T07:42:43.332Z,100771.25
2023-04-16T07:45:10.904Z,100778.31
2023-04-16T07:47:38.393Z,100774.66
2023-04-16T07:50:06.457Z,100777.34
2023-04-16T07:52:33.908Z,100783.41
2023-04-16T07:55:01.150Z,100781.72
2023-04-16T07:57:28.386Z,100782.56
2023-04-16T07:59:55.918Z,100792.34
2023-04-16T08:02:23.544Z,100790.50
2023-04-16T08:04:51.550Z,100790.50
2023-04-16T08:07:22.978Z,100793.88
2023-04-16T08:09:54.078Z,100797.41
2023-04-16T08:12:21.743Z,100797.31
2023-04-16T08:14:49.149Z,100795.47
2023-04-16T08:17:16.792Z,100798.00
2023-04-16T08:19:47.602Z,100803.25
2023-04-16T08:22:15.409Z,100808.63
2023-04-16T08:24:42.990Z,100811.16
2023-04-16T08:27:19.323Z,100801.19
2023-04-16T08:29:48.222Z,100806.41
2023-04-16T08:32:15.668Z,100806.41
2023-04-16T08:34:43.193Z,100803.84
2023-04-16T08:37:10.659Z,100809.47
2023-04-16T08:39:37.911Z,100806.78
2023-04-16T08:42:06.326Z,100810.31
2023-04-16T08:44:43.744Z,100807.38
2023-04-16T08:47:12.754Z,100813.59
2023-04-16T08:49:46.196Z,100817.97
2023-04-16T08:52:22.464Z,100808.22
2023-04-16T08:55:07.242Z,100811.75
2023-04-16T08:57:41.226Z,100817.00
2023-04-16T09:00:09.912Z,100812.47
2023-04-16T09:02:38.347Z,100816.88
2023-04-16T09:05:07.681Z,100814.06
2023-04-16T09:07:36.835Z,100806.84
2023-04-16T09:10:06.736Z,100813.06
2023-04-16T09:12:35.518Z,100798.09
2023-04-16T09:15:03.674Z,100816.75
2023-04-16T09:17:31.350Z,100812.34
2023-04-16T09:19:58.721Z,100818.56
2023-04-16T09:22:26.171Z,100814.06
2023-04-16T09:24:53.551Z,100818.31
2023-04-16T09:27:22.947Z,100820.16
2023-04-16T09:29:51.548Z,100814.66
2023-04-16T09:32:25.284Z,100803.91
2023-04-16T09:34:59.876Z,100813.78
2023-04-16T09:37:31.553Z,100821.84
2023-04-16T09:40:03.632Z,100818.31
2023-04-16T09:42:44.471Z,100807.59
2023-04-16T09:45:14.890Z,100814.66
2023-04-16T09:47:44.081Z,100824.53
2023-04-16T09:50:18.262Z,100817.47
2023-04-16T09:52:49.603Z,100823.69
2023-04-16T09:55:17.047Z,100824.53
2023-04-16T09:57:44.292Z,100822.69
2023-04-16T10:00:12.416Z,100827.91
2023-04-16T10:02:42.898Z,100809.88
2023-04-16T10:05:16.907Z,100812.41
2023-04-16T10:07:44.180Z,100816.78
2023-04-16T10:10:11.886Z,100814.97
2023-04-16T10:12:39.529Z,100811.31
2023-04-16T10:15:07.545Z,100824.72
2023-04-16T10:17:35.806Z,100814.00
2023-04-16T10:20:03.670Z,100817.66
2023-04-16T10:22:31.154Z,100811.31
2023-04-16T10:24:59.043Z,100814.00
2023-04-16T10:27:27.099Z,100820.91
2023-04-16T10:29:54.898Z,100818.38
2023-04-16T10:32:23.404Z,100821.31
2023-04-16T10:34:51.042Z,100809.13
2023-04-16T10:37:18.661Z,100813.91
2023-04-16T10:39:45.991Z,100808.94
2023-04-16T10:42:13.563Z,100812.75
2023-04-16T10:44:44.251Z,100804.69
2023-04-16T10:47:14.011Z,100808.94
2023-04-16T10:49:43.624Z,100807.97
2023-04-16T10:52:20.300Z,100798.78
2023-04-16T10:54:50.612Z,100799.53
2023-04-16T10:57:20.090Z,100795.88
2023-04-16T10:59:48.852Z,100795.72
2023-04-16T11:02:18.216Z,100800.13
2023-04-16T11:04:48.086Z,100799.13
2023-04-16T11:07:17.706Z,100802.53
2023-04-16T11:10:02.557Z,100798.00
2023-04-16T11:12:29.987Z,100790.69
2023-04-16T11:15:06.390Z,100795.06
2023-04-16T11:17:40.905Z,100790.53
2023-04-16T11:20:19.551Z,100789.59
2023-04-16T11:22:51.843Z,100792.25
2023-04-16T11:25:25.940Z,100795.66
2023-04-16T11:27:53.862Z,100788.44
2023-04-16T11:30:34.570Z,100786.75
2023-04-16T11:33:12.190Z,100797.34
2023-04-16T11:35:41.389Z,100789.28
2023-04-16T11:38:09.127Z,100788.34
2023-04-16T11:40:36.506Z,100781.13
2023-04-16T11:43:15.410Z,100781.13
2023-04-16T11:46:09.970Z,100784.66
2023-04-16T11:48:48.080Z,100785.34
2023-04-16T11:51:15.710Z,100774.63
2023-04-16T11:53:53.330Z,100782.69
2023-04-16T11:56:33.298Z,100781.97
2023-04-16T11:59:11.698Z,100771.34
2023-04-16T12:01:41.336Z,100784.06
2023-04-16T12:04:09.739Z,100779.94
2023-04-16T12:06:37.386Z,100768.63
2023-04-16T12:09:24.881Z,100780.47
2023-04-16T12:11:52.234Z,100770.88
2023-04-16T12:14:20.025Z,100772.69
2023-04-16T12:16:47.769Z,100775.38
2023-04-16T12:19:15.300Z,100780.84
2023-04-16T12:21:43.805Z,100770.13
2023-04-16T12:24:13.621Z,100775.38
2023-04-16T12:26:46.658Z,100772.56
2023-04-16T12:29:18.660Z,100763.81
2023-04-16T12:31:46.795Z,100762.94
2023-04-16T12:34:15.276Z,100757.84
2023-04-16T12:36:44.271Z,100756.25
2023-04-16T12:39:12.494Z,100750.91
2023-04-16T12:41:42.710Z,100751.63
2023-04-16T12:44:12.865Z,100751.88
2023-04-16T12:46:41.736Z,100751.16
2023-04-16T12:49:10.699Z,100751.44
2023-04-16T12:51:42.330Z,100749.31
2023-04-16T12:54:09.700Z,100748.47
2023-04-16T12:56:37.033Z,100739.72
2023-04-16T12:59:04.916Z,100736.19
2023-04-16T13:01:32.399Z,100733.63
2023-04-16T13:03:59.789Z,100736.03
2023-04-16T13:06:27.337Z,100731.66
2023-04-16T13:08:54.557Z,100729.09
2023-04-16T13:11:21.831Z,100727.56
2023-04-16T13:13:49.097Z,100728.53
2023-04-16T13:16:16.475Z,100723.28
2023-04-16T13:18:43.898Z,100728.66
2023-04-16T13:21:11.367Z,100727.81
2023-04-16T13:23:38.735Z,100726.13
2023-04-16T13:26:06.001Z,100728.78
2023-04-16T13:28:33.435Z,100719.03
2023-04-16T13:31:03.404Z,100721.72
2023-04-16T13:33:32.527Z,100718.47
2023-04-16T13:35:59.778Z,100719.91
2023-04-16T13:38:27.064Z,100722.69
2023-04-16T13:40:54.362Z,100726.38
2023-04-16T13:43:22.430Z,100717.59
2023-04-16T13:45:49.808Z,100716.88
2023-04-16T13:48:17.914Z,100724.94
2023-04-16T13:50:45.397Z,100709.28
2023-04-16T13:53:12.746Z,100719.31
2023-04-16T13:55:40.195Z,100716.50
2023-04-16T13:58:07.533Z,100709.19
2023-04-16T14:00:35.055Z,100713.66
2023-04-16T14:03:02.505Z,100717.34
2023-04-16T14:05:29.747Z,100716.88
2023-04-16T14:07:57.007Z,100713.22
2023-04-16T14:10:24.252Z,100718.59
2023-04-16T14:12:51.893Z,100715.06
2023-04-16T14:15:19.296Z,100721.41
2023-04-16T14:17:46.838Z,100721.66
2023-04-16T14:20:14.499Z,100721.50
2023-04-16T14:22:43.883Z,100724.09
2023-04-16T14:25:11.260Z,100732.25
2023-04-16T14:27:38.759Z,100716.16
2023-04-16T14:30:06.991Z,100724.94
2023-04-16T14:32:34.330Z,100712.38
2023-04-16T14:35:01.757Z,100711.66
2023-04-16T14:37:29.062Z,100714.34
2023-04-16T14:39:56.471Z,100717.03
2023-04-16T14:42:23.863Z,100719.56
2023-04-16T14:44:52.141Z,100718.72
2023-04-16T14:47:19.403Z,100717.88
2023-04-16T14:49:46.729Z,100718.00
2023-04-16T14:52:14.023Z,100721.66
2023-04-16T14:54:41.383Z,100729.56
2023-04-16T14:57:08.598Z,100726.03
2023-04-16T14:59:37.008Z,100735.91
2023-04-16T15:02:04.631Z,100734.94
2023-04-16T15:04:32.178Z,100723.34
2023-04-16T15:06:59.789Z,100730.56
2023-04-16T15:09:27.548Z,100738.50
2023-04-16T15:11:54.983Z,100734.81
2023-04-16T15:14:22.458Z,100733.81
2023-04-16T15:16:49.851Z,100742.72
2023-04-16T15:19:17.714Z,100734.81
2023-04-16T15:21:46.462Z,100741.72
2023-04-16T15:24:15.617Z,100743.56
2023-04-16T15:26:43.208Z,100745.00
2023-04-16T15:29:10.737Z,100745.75
2023-04-16T15:31:38.043Z,100737.44
2023-04-16T15:34:05.583Z,100737.28
2023-04-16T15:36:34.027Z,100738.13
2023-04-16T15:39:01.255Z,100735.47
2023-04-16T15:41:31.963Z,100738.88
2023-04-16T15:43:59.295Z,100736.19
2023-04-16T15:46:26.771Z,100731.66
2023-04-16T15:48:54.076Z,100732.53
2023-04-16T15:51:21.329Z,100737.75
2023-04-16T15:53:50.398Z,100733.38
2023-04-16T15:56:17.699Z,100746.78
2023-04-16T15:58:45.045Z,100741.41
2023-04-16T16:01:12.596Z,100753.97
2023-04-16T16:03:39.957Z,100753.97
2023-04-16T16:06:08.875Z,100757.66
2023-04-16T16:08:37.898Z,100754.97
2023-04-16T16:11:05.295Z,100761.19
2023-04-16T16:13:32.629Z,100763.88
2023-04-16T16:15:59.934Z,100750.44
2023-04-16T16:18:27.204Z,100749.59
2023-04-16T16:20:57.315Z,100761.19
2023-04-16T16:23:25.621Z,100761.28
2023-04-16T16:25:52.909Z,100767.53
2023-04-16T16:28:20.709Z,100772.91
2023-04-16T16:30:48.092Z,100767.53
2023-04-16T16:33:15.559Z,100771.91
2023-04-16T16:35:42.861Z,100779.97
2023-04-16T16:38:10.247Z,100780.06
2023-04-16T16:40:38.664Z,100782.66
2023-04-16T16:43:06.536Z,100772.91
2023-04-16T16:45:33.805Z,100789.84
2023-04-16T16:48:01.301Z,100789.00
2023-04-16T16:50:28.782Z,100790.69
2023-04-16T16:52:58.866Z,100790.81
2023-04-16T16:55:26.591Z,100782.66
2023-04-16T16:57:54.402Z,100789.84
2023-04-16T17:00:22.218Z,100796.06
2023-04-16T17:02:51.244Z,100799.59
2023-04-16T17:05:18.944Z,100796.75
2023-04-16T17:07:46.343Z,100791.28
2023-04-16T17:10:20.050Z,100787.75
2023-04-16T17:12:48.691Z,100790.44
2023-04-16T17:15:17.247Z,100789.56
2023-04-16T17:17:46.055Z,100804.69
2023-04-16T17:20:14.376Z,100801.19
2023-04-16T17:22:42.458Z,100802.03
2023-04-16T17:25:10.309Z,100808.09
2023-04-16T17:27:37.695Z,100805.56
2023-04-16T17:30:05.920Z,100813.59
2023-04-16T17:32:33.361Z,100816.13
2023-04-16T17:35:03.995Z,100822.34
2023-04-16T17:37:31.897Z,100826.75
2023-04-16T17:39:59.566Z,100824.09
2023-04-16T17:42:26.829Z,100827.47
2023-04-16T17:44:54.046Z,100839.91
2023-04-16T17:47:21.412Z,100843.44
2023-04-16T17:49:48.737Z,100852.34
2023-04-16T17:52:16.023Z,100853.19
2023-04-16T17:54:43.384Z,100859.41
2023-04-16T17:57:10.728Z,100856.72
2023-04-16T17:59:38.000Z,100862.09
2023-04-16T18:02:05.533Z,100858.56
2023-04-16T18:04:33.313Z,100861.25
2023-04-16T18:07:00.907Z,100857.84
2023-04-16T18:09:28.385Z,100862.50
2023-04-16T18:11:56.739Z,100853.72
2023-04-16T18:14:24.004Z,100861.75
2023-04-16T18:16:51.317Z,100867.00
2023-04-16T18:19:18.680Z,100875.91
2023-04-16T18:21:45.903Z,100875.91
2023-04-16T18:24:13.846Z,100865.88
2023-04-16T18:26:41.462Z,100864.03
2023-04-16T18:29:09.200Z,100860.41
2023-04-16T18:31:36.644Z,100872.69
2023-04-16T18:34:03.996Z,100870.00
2023-04-16T18:36:31.585Z,100876.22
2023-04-16T18:39:01.783Z,100873.44
2023-04-16T18:41:30.974Z,100879.66
2023-04-16T18:43:58.657Z,100885.88
2023-04-16T18:46:27.527Z,100885.88
2023-04-16T18:48:55.068Z,100885.72
2023-04-16T18:51:22.382Z,100890.25
2023-04-16T18:53:49.632Z,100894.63
2023-04-16T18:56:17.057Z,100886.47
2023-04-16T18:58:44.489Z,100891.81
2023-04-16T19:01:13.954Z,100892.66
2023-04-16T19:03:41.311Z,100888.16
2023-04-16T19:06:08.748Z,100887.16
2023-04-16T19:08:36.064Z,100884.47
2023-04-16T19:11:03.359Z,100881.78
2023-04-16T19:13:32.234Z,100893.38
2023-04-16T19:16:00.989Z,100894.25
2023-04-16T19:18:28.392Z,100897.78
2023-04-16T19:21:01.994Z,100906.69
2023-04-16T19:23:29.391Z,100904.00
2023-04-16T19:25:57.040Z,100904.84
2023-04-16T19:28:25.142Z,100900.34
2023-04-16T19:30:53.430Z,100910.06
2023-04-16T19:33:21.031Z,100908.38
2023-04-16T19:35:48.378Z,100907.41
2023-04-16T19:38:15.691Z,100906.53
2023-04-16T19:40:46.945Z,100918.97
2023-04-16T19:43:14.798Z,100912.75
2023-04-16T19:45:47.047Z,100913.59
2023-04-16T19:48:14.518Z,100906.53
2023-04-16T19:50:42.737Z,100917.19
2023-04-16T19:53:11.011Z,100917.19
2023-04-16T19:55:41.994Z,100922.53
2023-04-16T19:58:09.758Z,100914.50
2023-04-16T20:00:40.807Z,100914.50
2023-04-16T20:03:08.265Z,100914.50
2023-04-16T20:05:35.694Z,100909.97
2023-04-16T20:08:03.439Z,100920.72
2023-04-16T20:10:31.531Z,100919.84
2023-04-16T20:12:59.164Z,100915.34
2023-04-16T20:15:26.464Z,100919.72
2023-04-16T20:17:56.093Z,100907.28
2023-04-16T20:20:23.721Z,100913.34
2023-04-16T20:22:51.272Z,100913.34
2023-04-16T20:25:19.304Z,100913.34
2023-04-16T20:27:46.851Z,100911.66
2023-04-16T20:30:17.223Z,100907.16
2023-04-16T20:32:44.546Z,100908.13
2023-04-16T20:35:12.195Z,100910.81
2023-04-16T20:37:41.935Z,100905.44
2023-04-16T20:40:10.962Z,100913.50
2023-04-16T20:42:38.992Z,100907.28
2023-04-16T20:45:07.530Z,100912.66
2023-04-16T20:47:35.215Z,100906.44
2023-04-16T20:50:03.825Z,100908.25
2023-04-16T20:52:31.231Z,100914.50
2023-04-16T20:54:58.452Z,100902.88
2023-04-16T20:57:26.100Z,100912.66
2023-04-16T20:59:53.319Z,100902.88
2023-04-16T21:02:27.526Z,100909.97
2023-04-16T21:04:56.187Z,100918.97
2023-04-16T21:07:23.671Z,100913.59
2023-04-16T21:09:51.162Z,100910.94
2023-04-16T21:12:18.699Z,100914.50
2023-04-16T21:14:45.975Z,100919.84
2023-04-16T21:17:13.666Z,100912.75
2023-04-16T21:19:41.130Z,100914.59
2023-04-16T21:22:08.385Z,100918.97
2023-04-16T21:24:38.672Z,100911.06
2023-04-16T21:27:05.986Z,100911.91
2023-04-16T21:29:33.228Z,100918.97
2023-04-16T21:32:00.714Z,100909.13
2023-04-16T21:34:28.262Z,100914.50
2023-04-16T21:36:55.948Z,100909.97
2023-04-16T21:39:25.935Z,100908.13
2023-04-16T21:41:53.254Z,100908.97
2023-04-16T21:44:21.239Z,100913.25
2023-04-16T21:46:48.696Z,100914.94
2023-04-16T21:49:16.108Z,100904.91
2023-04-16T21:51:46.090Z,100912.00
2023-04-16T21:54:13.432Z,100907.59
2023-04-16T21:56:40.827Z,100914.69
2023-04-16T21:59:08.501Z,100907.34
2023-04-16T22:01:35.855Z,100912.84
2023-04-16T22:04:03.905Z,100912.84
2023-04-16T22:06:31.279Z,100903.06
2023-04-16T22:08:58.957Z,100908.44
2023-04-16T22:11:26.220Z,100903.94
2023-04-16T22:13:57.764Z,100903.94
2023-04-16T22:16:25.681Z,100901.28
2023-04-16T22:18:54.997Z,100893.31
2023-04-16T22:21:22.350Z,100906.63
2023-04-16T22:23:49.597Z,100912.97
2023-04-16T22:26:17.007Z,100906.63
2023-04-16T22:28:44.745Z,100909.44
2023-04-16T22:31:14.627Z,100906.75
2023-04-16T22:33:42.012Z,100906.63
2023-04-16T22:36:09.433Z,100904.06
2023-04-16T22:38:38.825Z,100912.00
2023-04-16T22:41:06.271Z,100912.13
2023-04-16T22:43:37.009Z,100916.63
2023-04-16T22:46:06.481Z,100920.16
2023-04-16T22:48:36.346Z,100919.19
2023-04-16T22:51:07.657Z,100916.50
2023-04-16T22:53:35.987Z,100916.50
2023-04-16T22:56:03.249Z,100911.28
2023-04-16T22:58:30.620Z,100912.00
2023-04-16T23:00:59.573Z,100907.75
2023-04-16T23:03:27.325Z,100904.22
2023-04-16T23:05:54.751Z,100914.09
2023-04-16T23:08:22.011Z,100907.88
2023-04-16T23:10:49.272Z,100907.16
2023-04-16T23:13:16.552Z,100911.53
2023-04-16T23:15:43.903Z,100915.19
2023-04-16T23:18:11.298Z,100911.66
2023-04-16T23:20:38.787Z,100912.50
2023-04-16T23:23:06.061Z,100916.19
2023-04-16T23:25:33.217Z,100919.84
2023-04-16T23:28:00.471Z,100916.19
2023-04-16T23:30:27.730Z,100917.19
2023-04-16T23:32:54.989Z,100919.84
2023-04-16T23:35:22.944Z,100918.97
2023-04-16T23:37:50.262Z,100919.84
2023-04-16T23:40:17.680Z,100908.25
2023-04-16T23:42:44.928Z,100918.13
2023-04-16T23:45:12.390Z,100916.44
2023-04-16T23:47:40.282Z,100920.97
2023-04-16T23:50:07.847Z,100913.75
2023-04-16T23:52:35.187Z,100920.97
2023-04-16T23:55:02.416Z,100917.44
2023-04-16T23:57:29.663Z,100923.63
2023-04-16T23:59:56.895Z,100913.91
